Time;durP1;ratioP1;P1;durP2;ratioP2;P2;SDS_P1;SDS_P2;PMS_P1;PMS_P2;Temp;Humidity;BMP_temperature;BMP_pressure;BME280_temperature;BME280_humidity;BME280_pressure;Samples;Min_cycle;Max_cycle;Signal;HPM_P1;HPM_P2
2022/01/22 00:02:07;;;;;;;22.30;10.45;;;;;;;-4.72;75.70;98295.81;5029889;28;20084;-81
2022/01/22 00:04:35;;;;;;;22.27;9.95;;;;;;;-4.70;75.64;98302.69;5034658;28;20058;-82
2022/01/22 00:07:04;;;;;;;27.38;11.82;;;;;;;-4.67;75.77;98299.38;5034952;28;20053;-80
2022/01/22 00:09:51;;;;;;;23.13;10.20;;;;;;;-4.60;75.59;98301.38;5034513;28;20859;-82
2022/01/22 00:12:42;;;;;;;25.58;10.52;;;;;;;-4.57;75.42;98294.69;5034829;28;20495;-81
2022/01/22 00:15:11;;;;;;;21.85;10.50;;;;;;;-4.62;75.31;98293.66;5017353;28;20046;-80
2022/01/22 00:17:38;;;;;;;23.60;9.73;;;;;;;-4.61;75.61;98310.69;5032889;28;20053;-80
2022/01/22 00:20:06;;;;;;;23.42;10.20;;;;;;;-4.71;75.83;98285.69;5034575;28;20063;-80
2022/01/22 00:22:36;;;;;;;22.20;9.73;;;;;;;-4.60;75.59;98306.47;5034454;28;20053;-80
2022/01/22 00:25:08;;;;;;;22.42;10.02;;;;;;;-4.65;75.53;98320.72;5016785;28;20479;-79
2022/01/22 00:27:38;;;;;;;23.95;9.77;;;;;;;-4.67;75.83;98307.91;5034230;28;20111;-79
2022/01/22 00:30:08;;;;;;;22.27;9.32;;;;;;;-4.72;75.73;98294.13;5034177;28;20064;-81
2022/01/22 00:32:36;;;;;;;18.75;9.85;;;;;;;-4.65;75.97;98310.50;5034101;28;20122;-80
2022/01/22 00:35:05;;;;;;;19.90;9.57;;;;;;;-4.57;75.61;98324.41;5032951;28;20052;-80
2022/01/22 00:37:34;;;;;;;20.95;9.40;;;;;;;-4.66;75.34;98296.03;5016511;28;20136;-81
2022/01/22 00:40:03;;;;;;;21.55;9.43;;;;;;;-4.66;75.74;98322.38;5016739;28;20053;-81
2022/01/22 00:42:34;;;;;;;25.27;10.75;;;;;;;-4.70;75.81;98295.06;5033954;28;20049;-80
2022/01/22 00:45:01;;;;;;;21.38;9.50;;;;;;;-4.56;75.83;98321.94;5034016;28;20057;-80
2022/01/22 00:47:29;;;;;;;20.25;9.25;;;;;;;-4.54;75.46;98311.78;5035591;28;20158;-81
2022/01/22 00:49:56;;;;;;;21.98;9.25;;;;;;;-4.47;75.22;98336.72;5034263;28;20065;-82
2022/01/22 00:52:23;;;;;;;20.33;8.95;;;;;;;-4.55;75.23;98308.38;5032812;28;20049;-81
2022/01/22 00:54:50;;;;;;;19.23;9.05;;;;;;;-4.39;75.13;98331.88;5033965;28;20049;-82
2022/01/22 00:57:18;;;;;;;19.08;8.40;;;;;;;-4.46;74.82;98329.94;5033882;28;20072;-81
2022/01/22 00:59:45;;;;;;;19.15;9.25;;;;;;;-4.55;75.38;98330.44;5036339;28;20092;-82
2022/01/22 01:02:12;;;;;;;18.27;9.05;;;;;;;-4.63;75.42;98336.94;5034158;28;20087;-81
2022/01/22 01:04:40;;;;;;;17.88;8.90;;;;;;;-4.58;75.59;98336.31;5017202;28;20052;-83
2022/01/22 01:07:06;;;;;;;19.00;8.30;;;;;;;-4.51;75.23;98352.69;5034476;28;20053;-82
2022/01/22 01:09:36;;;;;;;21.48;10.10;;;;;;;-4.67;75.37;98322.31;5016891;28;20131;-80
2022/01/22 01:12:07;;;;;;;20.30;8.68;;;;;;;-4.70;75.09;98340.91;5016271;28;20046;-80
2022/01/22 01:14:43;;;;;;;23.00;9.60;;;;;;;-4.69;75.28;98332.44;5016063;28;20049;-81
2022/01/22 01:17:23;;;;;;;18.52;8.40;;;;;;;-4.62;75.58;98347.19;5034188;28;20092;-82
2022/01/22 01:34:23;;;;;;;20.65;8.98;;;;;;;-4.67;75.59;98353.75;5033617;28;20144;-80
2022/01/22 01:36:29;;;;;;;23.67;9.07;;;;;;;-4.58;75.30;98354.16;5007996;28;20538;-80
2022/01/22 01:39:00;;;;;;;19.73;8.73;;;;;;;-4.50;74.99;98351.88;5015498;28;20096;-80
2022/01/22 01:41:36;;;;;;;18.35;9.13;;;;;;;-4.68;75.19;98313.81;5015448;28;20056;-82
2022/01/22 01:44:04;;;;;;;20.27;8.90;;;;;;;-4.57;75.52;98343.13;5016126;28;20049;-81
2022/01/22 01:46:59;;;;;;;23.52;8.75;;;;;;;-4.76;75.54;98353.41;5002199;28;20061;-79
2022/01/22 01:49:30;;;;;;;21.95;8.70;;;;;;;-4.65;75.96;98353.84;5015745;28;20057;-80
2022/01/22 01:52:01;;;;;;;21.00;10.18;;;;;;;-4.70;76.05;98333.28;4999983;28;20104;-83
2022/01/22 01:54:36;;;;;;;18.85;9.88;;;;;;;-4.57;76.02;98355.00;4981603;28;20057;-81
2022/01/22 01:59:52;;;;;;;19.02;9.57;;;;;;;-4.56;75.78;98359.28;5014447;28;20057;-81
2022/01/22 02:02:46;;;;;;;18.88;9.60;;;;;;;-4.61;75.20;98351.47;4994301;28;20066;-80
2022/01/22 02:05:21;;;;;;;19.05;9.05;;;;;;;-4.54;75.71;98358.56;4976006;28;20480;-79
2022/01/22 02:07:52;;;;;;;19.38;8.93;;;;;;;-4.57;75.66;98363.50;4975912;28;20061;-81
2022/01/22 02:10:24;;;;;;;17.58;9.32;;;;;;;-4.57;75.78;98362.66;4976368;28;20518;-81
2022/01/22 02:24:00;;;;;;;17.90;9.43;;;;;;;-4.79;76.13;98373.69;4976186;28;20073;-80
2022/01/22 02:26:29;;;;;;;20.98;10.10;;;;;;;-4.78;76.06;98391.56;4976825;28;20058;-79
2022/01/22 02:28:57;;;;;;;18.13;8.98;;;;;;;-4.80;76.10;98377.03;4975873;28;20541;-80
2022/01/22 02:31:43;;;;;;;20.73;9.07;;;;;;;-4.82;76.10;98373.53;4976284;28;20141;-78
2022/01/22 02:34:20;;;;;;;16.52;9.45;;;;;;;-4.75;76.12;98388.28;4975954;28;20496;-80
2022/01/22 02:37:04;;;;;;;20.85;9.85;;;;;;;-4.83;75.83;98393.06;4976158;28;20468;-81
2022/01/22 02:40:21;;;;;;;17.25;8.85;;;;;;;-4.89;76.24;98400.44;4977996;28;20066;-80
2022/01/22 02:42:26;;;;;;;21.80;9.45;;;;;;;-5.00;76.05;98391.50;4972366;28;20061;-79
2022/01/22 02:44:54;;;;;;;20.15;9.30;;;;;;;-4.98;76.10;98392.44;4979657;28;20085;-79
2022/01/22 02:47:22;;;;;;;19.88;9.20;;;;;;;-5.00;76.23;98386.41;4980100;28;20050;-80
2022/01/22 02:49:50;;;;;;;22.77;9.55;;;;;;;-4.94;76.15;98394.31;4997068;28;20401;-81
2022/01/22 02:52:18;;;;;;;21.63;8.98;;;;;;;-4.95;76.18;98402.75;4980631;28;20062;-79
2022/01/22 02:54:46;;;;;;;20.10;9.13;;;;;;;-4.95;76.59;98398.53;4980035;28;20085;-80
2022/01/22 02:57:14;;;;;;;17.88;8.95;;;;;;;-4.94;76.19;98401.94;4980064;28;20161;-81
2022/01/22 02:59:45;;;;;;;13.85;6.95;;;;;;;-4.99;76.37;98406.84;4980285;28;20046;-80
2022/01/22 03:02:14;;;;;;;21.83;8.43;;;;;;;-4.97;76.52;98406.91;4994584;28;20054;-81
2022/01/22 03:04:43;;;;;;;19.40;9.02;;;;;;;-4.88;76.45;98417.50;4998909;28;20483;-81
2022/01/22 03:07:11;;;;;;;22.20;8.82;;;;;;;-4.86;76.14;98423.53;4999287;28;20046;-80
2022/01/22 03:09:43;;;;;;;17.88;8.13;;;;;;;-4.84;76.13;98432.09;5016285;28;20088;-79
2022/01/22 03:15:31;;;;;;;18.83;8.88;;;;;;;-4.89;76.61;98419.97;4998647;28;20054;-79
2022/01/22 03:28:28;;;;;;;17.88;9.18;;;;;;;-4.88;76.41;98431.88;5016330;28;20058;-81
2022/01/22 03:30:55;;;;;;;20.15;9.15;;;;;;;-4.88;76.79;98431.88;5000404;28;20512;-80
2022/01/22 03:33:24;;;;;;;21.23;9.45;;;;;;;-4.84;76.61;98434.66;4998634;28;20120;-81
2022/01/22 03:35:57;;;;;;;19.92;9.30;;;;;;;-4.83;76.76;98438.06;5015785;28;20057;-79
2022/01/22 03:38:24;;;;;;;18.80;9.38;;;;;;;-4.83;77.30;98450.78;4998701;28;20500;-80
2022/01/22 03:40:51;;;;;;;18.25;8.68;;;;;;;-4.84;76.92;98451.59;4998143;28;20088;-79
2022/01/22 03:43:18;;;;;;;20.48;9.13;;;;;;;-4.83;77.23;98449.09;4997919;28;20396;-80
2022/01/22 03:45:49;;;;;;;20.08;9.07;;;;;;;-4.80;76.84;98461.97;4997890;28;20076;-80
2022/01/22 03:48:16;;;;;;;17.67;8.85;;;;;;;-4.82;76.83;98470.34;4998063;28;20057;-80
2022/01/22 03:50:44;;;;;;;20.45;8.88;;;;;;;-4.83;77.31;98463.53;4997038;28;20104;-80
2022/01/22 03:53:11;;;;;;;16.40;8.43;;;;;;;-4.82;77.00;98463.59;4997832;28;20135;-79
2022/01/22 03:58:33;;;;;;;22.52;9.45;;;;;;;-4.78;77.03;98473.09;5015785;28;20057;-79
2022/01/22 04:04:02;;;;;;;17.73;9.13;;;;;;;-4.77;76.94;98477.38;4997819;28;20513;-81
2022/01/22 04:09:11;;;;;;;18.52;9.48;;;;;;;-4.78;76.74;98493.47;5013848;28;20132;-80
2022/01/22 04:11:41;;;;;;;20.67;9.57;;;;;;;-4.70;76.97;98490.38;4981162;28;20474;-80
2022/01/22 04:14:17;;;;;;;18.00;8.70;;;;;;;-4.71;76.96;98484.44;4997878;28;20061;-82
2022/01/22 04:16:59;;;;;;;19.33;9.02;;;;;;;-4.66;76.61;98492.25;5014655;28;20077;-80
2022/01/22 04:25:11;;;;;;;20.85;8.70;;;;;;;-4.73;76.66;98491.13;4961589;28;20056;-80
2022/01/22 04:27:37;;;;;;;19.08;9.30;;;;;;;-4.70;76.92;98510.78;5015530;28;20064;-80
2022/01/22 04:30:05;;;;;;;23.67;10.38;;;;;;;-4.81;76.88;98497.59;5014923;28;20124;-81
2022/01/22 04:32:32;;;;;;;21.05;9.43;;;;;;;-4.76;77.17;98514.78;5016003;28;20097;-81
2022/01/22 04:35:01;;;;;;;20.00;8.95;;;;;;;-4.81;76.86;98497.59;5020791;28;20056;-80
2022/01/22 04:37:29;;;;;;;17.83;9.10;;;;;;;-4.86;76.82;98492.31;5019143;28;20054;-80
2022/01/22 04:39:56;;;;;;;20.08;8.98;;;;;;;-4.69;76.94;98528.66;5020868;28;20218;-81
2022/01/22 04:42:25;;;;;;;19.63;8.77;;;;;;;-4.69;77.07;98510.81;5015024;28;20065;-81
2022/01/22 04:45:10;;;;;;;;;;;;;;;-4.67;77.02;98521.09;4981245;28;20057;-79
2022/01/22 04:55:42;;;;;;;21.52;9.30;;;;;;;-4.53;77.01;98537.84;4996892;28;20069;-80
2022/01/22 04:58:10;;;;;;;23.92;10.25;;;;;;;-4.53;77.61;98533.59;4996835;28;20058;-81
2022/01/22 05:00:40;;;;;;;18.10;8.60;;;;;;;-4.53;77.64;98533.59;4996885;28;20092;-83
2022/01/22 05:03:27;;;;;;;20.70;9.45;;;;;;;-4.53;77.83;98543.78;5013462;28;20058;-81
2022/01/22 05:06:00;;;;;;;17.92;8.43;;;;;;;-4.52;77.45;98547.19;4996861;28;20141;-83
2022/01/22 05:08:41;;;;;;;22.20;9.25;;;;;;;-4.59;77.62;98545.22;4996330;28;20500;-82
2022/01/22 05:11:16;;;;;;;18.55;9.30;;;;;;;-4.69;77.90;98545.63;5014253;28;20116;-81
2022/01/22 05:13:46;;;;;;;19.40;9.25;;;;;;;-4.63;77.76;98556.09;4996606;28;20057;-81
2022/01/22 05:16:13;;;;;;;18.40;8.90;;;;;;;-4.71;77.92;98548.13;4997054;28;20054;-80
2022/01/22 05:18:54;;;;;;;21.75;9.85;;;;;;;-4.69;78.14;98564.31;4996775;28;20423;-80
2022/01/22 05:21:23;;;;;;;;;;;;;;;-4.78;78.27;98564.81;4985473;28;20536;-80
2022/01/22 05:23:53;;;;;;;20.87;9.47;;;;;;;-4.81;78.65;98566.38;4990559;28;19925;-78
2022/01/22 05:26:50;;;;;;;21.50;10.10;;;;;;;-4.73;78.62;98585.41;5008246;28;20273;-78
2022/01/22 05:32:31;;;;;;;25.75;11.57;;;;;;;-4.72;79.25;98593.94;5006629;28;20098;-79
2022/01/22 05:37:48;;;;;;;23.42;10.57;;;;;;;-4.83;79.41;98578.16;4999619;28;20061;-82
2022/01/22 05:40:15;;;;;;;26.75;11.02;;;;;;;-4.67;78.52;98590.75;5000068;28;20086;-82
2022/01/22 05:42:42;;;;;;;23.40;11.68;;;;;;;-4.60;78.85;98602.09;5016806;28;20054;-81
2022/01/22 05:45:09;;;;;;;24.83;12.00;;;;;;;-4.53;78.92;98610.06;5013040;28;20470;-80
2022/01/22 05:47:36;;;;;;;24.77;11.90;;;;;;;-4.53;79.00;98592.22;5013417;28;20508;-82
2022/01/22 05:50:10;;;;;;;28.05;12.57;;;;;;;-4.52;78.69;98600.72;4997200;28;20064;-80
2022/01/22 05:52:51;;;;;;;25.75;12.38;;;;;;;-4.44;78.87;98619.78;5014095;28;20058;-81
2022/01/22 06:00:43;;;;;;;23.30;12.80;;;;;;;-4.43;78.74;98625.75;5008795;28;20058;-81
2022/01/22 06:03:21;;;;;;;24.35;12.32;;;;;;;-4.37;78.86;98621.78;4991564;28;20051;-80
2022/01/22 06:05:50;;;;;;;25.67;12.60;;;;;;;-4.44;78.59;98609.59;5006391;28;20131;-78
2022/01/22 06:08:17;;;;;;;28.58;13.07;;;;;;;-4.38;78.77;98621.72;4990945;28;20077;-79
2022/01/22 06:10:47;;;;;;;28.98;13.32;;;;;;;-4.25;78.84;98630.78;5006135;28;20054;-78
2022/01/22 06:13:19;;;;;;;26.80;12.95;;;;;;;-4.15;78.23;98633.78;4981984;28;20085;-84
2022/01/22 06:15:53;;;;;;;24.02;11.88;;;;;;;-4.12;78.33;98640.66;4990401;28;20073;-82
2022/01/22 06:18:31;;;;;;;24.27;12.48;;;;;;;-4.23;78.43;98601.97;4984079;28;20057;-81
2022/01/22 06:21:01;;;;;;;25.85;12.93;;;;;;;-3.98;77.76;98631.94;4985110;28;20061;-84
2022/01/22 06:23:32;;;;;;;27.30;12.80;;;;;;;-3.91;77.58;98636.47;5003113;28;20054;-80
2022/01/22 06:26:00;;;;;;;24.85;12.65;;;;;;;-3.96;77.65;98634.50;5001250;28;20535;-85
2022/01/22 06:28:30;;;;;;;29.80;13.73;;;;;;;-3.87;78.21;98639.13;4983351;28;20088;-80
2022/01/22 06:30:59;;;;;;;25.25;12.90;;;;;;;-3.79;77.64;98651.38;4999539;28;20054;-84
2022/01/22 06:33:27;;;;;;;25.40;12.65;;;;;;;-3.83;77.67;98661.41;4982270;28;20096;-84
2022/01/22 06:35:55;;;;;;;29.33;12.70;;;;;;;-3.89;78.05;98653.50;4982902;28;20080;-84
2022/01/22 06:38:23;;;;;;;30.42;13.32;;;;;;;-3.82;77.73;98656.38;4998606;28;20141;-81
2022/01/22 06:44:09;;;;;;;26.98;12.73;;;;;;;-3.76;77.29;98653.22;5000588;28;20078;-82
2022/01/22 06:46:45;;;;;;;29.13;13.82;;;;;;;-4.01;77.41;98615.59;5000088;28;20062;-85
2022/01/22 06:49:30;;;;;;;27.85;13.55;;;;;;;-3.81;77.44;98664.91;5001266;28;20061;-82
2022/01/22 06:52:37;;;;;;;29.55;13.32;;;;;;;-3.90;77.47;98678.16;5002105;28;20057;-81
2022/01/22 06:55:12;;;;;;;29.30;13.57;;;;;;;-3.84;77.28;98680.97;4990609;28;20085;-82
2022/01/22 06:57:39;;;;;;;27.80;12.60;;;;;;;-4.08;77.05;98640.00;5003494;28;20461;-79
2022/01/22 07:00:13;;;;;;;33.25;13.70;;;;;;;-3.78;77.30;98699.06;4998485;28;20120;-83
2022/01/22 07:02:53;;;;;;;26.08;12.57;;;;;;;-3.78;76.90;98701.63;4998346;28;20512;-85
2022/01/22 07:05:22;;;;;;;27.17;13.48;;;;;;;-3.81;77.00;98701.47;4987028;28;20078;-81
2022/01/22 07:08:02;;;;;;;26.75;13.13;;;;;;;-3.71;76.98;98715.50;4999998;28;20566;-81
2022/01/22 07:10:32;;;;;;;35.15;14.63;;;;;;;-3.68;76.84;98724.97;4999390;28;20437;-80
2022/01/22 07:12:59;;;;;;;28.52;14.05;;;;;;;-3.61;76.98;98715.09;4999787;28;20050;-81
2022/01/22 07:15:28;;;;;;;28.75;14.55;;;;;;;-3.54;76.66;98721.31;4982574;28;20627;-81
2022/01/22 07:18:03;;;;;;;39.40;14.93;;;;;;;-3.45;76.84;98741.25;4955523;28;20427;-84
2022/01/22 07:20:39;;;;;;;33.33;15.00;;;;;;;-3.45;76.48;98733.59;4982434;28;20078;-80
2022/01/22 07:26:01;;;;;;;31.30;14.07;;;;;;;-3.36;76.48;98742.47;4996153;28;20494;-82
2022/01/22 07:28:55;;;;;;;32.20;15.43;;;;;;;-3.43;76.31;98749.84;4966958;28;20467;-81
2022/01/22 07:31:26;;;;;;;34.40;15.45;;;;;;;-3.46;76.15;98752.25;4998206;28;20551;-84
2022/01/22 07:33:58;;;;;;;33.70;15.55;;;;;;;-3.60;76.36;98746.59;4964729;28;20405;-84
2022/01/22 07:36:25;;;;;;;30.65;14.48;;;;;;;-3.55;76.46;98763.84;4963366;28;20058;-84
2022/01/22 07:38:53;;;;;;;35.45;16.70;;;;;;;-3.51;76.08;98762.28;4984024;28;20096;-83
2022/01/22 07:41:20;;;;;;;35.67;16.55;;;;;;;-3.54;76.40;98754.50;4979284;28;20109;-83
2022/01/22 07:44:03;;;;;;;32.47;15.45;;;;;;;-3.41;75.98;98769.50;4979863;28;20046;-80
2022/01/22 07:46:43;;;;;;;38.08;16.27;;;;;;;-3.40;76.29;98775.50;4982323;28;20062;-80
2022/01/22 07:49:21;;;;;;;34.83;16.42;;;;;;;-3.21;76.04;98777.97;4979088;28;20405;-80
2022/01/22 07:51:56;;;;;;;35.35;15.77;;;;;;;-3.10;75.77;98791.19;4965615;28;20065;-82
2022/01/22 07:54:27;;;;;;;35.42;16.58;;;;;;;-3.20;75.48;98758.44;5003302;28;20051;-81
2022/01/22 07:56:56;;;;;;;35.75;15.50;;;;;;;-2.97;75.54;98802.78;4970340;28;20065;-83
2022/01/22 07:59:23;;;;;;;39.78;15.02;;;;;;;-2.91;75.71;98795.34;4985229;28;20090;-81
2022/01/22 08:01:52;;;;;;;32.08;15.52;;;;;;;-2.83;75.30;98805.91;4982125;28;20066;-81
2022/01/22 08:04:30;;;;;;;30.48;14.80;;;;;;;-2.73;74.79;98807.97;4987613;28;20113;-82
2022/01/22 08:07:28;;;;;;;36.22;17.08;;;;;;;-2.75;74.71;98807.06;4995769;28;20085;-80
2022/01/22 08:10:14;;;;;;;34.35;15.30;;;;;;;-2.90;74.74;98794.56;4995237;28;20054;-81
2022/01/22 08:12:49;;;;;;;31.10;15.80;;;;;;;-2.77;74.90;98819.78;4977909;28;20520;-80
2022/01/22 08:15:18;;;;;;;31.15;15.30;;;;;;;-2.65;74.33;98823.63;4998899;28;20097;-79
2022/01/22 08:17:46;;;;;;;30.40;14.95;;;;;;;-2.72;74.37;98808.03;4981248;28;20393;-80
2022/01/22 08:20:16;;;;;;;30.05;14.60;;;;;;;-2.59;73.88;98808.53;4977689;28;20400;-84
2022/01/22 08:22:50;;;;;;;34.45;15.30;;;;;;;-2.58;73.89;98823.03;4993965;28;20602;-82
2022/01/22 08:25:17;;;;;;;97.72;20.20;;;;;;;-2.57;74.03;98817.13;4995229;28;20671;-83
2022/01/22 08:30:40;;;;;;;66.72;18.95;;;;;;;-2.28;73.23;98825.91;4978447;28;20077;-84
2022/01/22 08:35:53;;;;;;;48.08;17.58;;;;;;;-2.25;72.92;98840.53;4977703;28;20050;-85
2022/01/22 08:38:30;;;;;;;36.88;15.95;;;;;;;-2.34;73.05;98841.03;4978094;28;20069;-80
2022/01/22 08:41:01;;;;;;;35.63;16.40;;;;;;;-2.51;73.17;98842.94;4978248;28;20050;-85
2022/01/22 08:43:37;;;;;;;36.42;15.35;;;;;;;-2.70;72.96;98826.00;4987277;28;20056;-81
2022/01/22 08:46:05;;;;;;;36.00;15.70;;;;;;;-2.54;73.19;98853.94;4982614;28;20061;-82
2022/01/22 08:48:32;;;;;;;32.40;16.92;;;;;;;-2.58;73.27;98849.50;4973760;28;20094;-80
2022/01/22 08:50:59;;;;;;;34.88;16.98;;;;;;;-2.62;72.62;98860.44;4973815;28;20063;-81
2022/01/22 08:53:47;;;;;;;35.03;17.48;;;;;;;-2.78;73.13;98861.47;4974096;28;20429;-82
2022/01/22 08:56:15;;;;;;;54.70;19.27;;;;;;;-2.90;73.17;98844.00;4975941;28;20074;-83
2022/01/22 08:58:43;;;;;;;36.95;17.38;;;;;;;-2.63;73.47;98870.59;4974276;28;20425;-82
2022/01/22 09:01:20;;;;;;;40.92;18.67;;;;;;;-2.72;73.08;98866.84;4975106;28;20063;-81
2022/01/22 09:03:50;;;;;;;37.88;17.85;;;;;;;-2.78;72.99;98866.59;4974253;28;20086;-80
2022/01/22 09:06:36;;;;;;;54.67;18.90;;;;;;;-2.81;73.41;98870.72;4974215;28;20061;-81
2022/01/22 09:09:13;;;;;;;35.85;17.40;;;;;;;-2.72;73.51;98869.41;4966093;28;20142;-83
2022/01/22 09:12:08;;;;;;;36.70;18.33;;;;;;;-2.59;73.47;98881.00;4964375;28;20416;-83
2022/01/22 09:14:52;;;;;;;38.70;18.63;;;;;;;-2.74;73.08;98862.50;4968647;28;20416;-79
2022/01/22 09:17:20;;;;;;;37.90;17.88;;;;;;;-2.78;73.10;98887.03;4967657;28;20073;-80
2022/01/22 09:19:57;;;;;;;45.17;20.08;;;;;;;-2.94;73.82;98864.25;4958750;28;20105;-81
2022/01/22 09:22:25;;;;;;;37.25;17.05;;;;;;;-2.74;72.78;98885.50;4957178;28;20078;-80
2022/01/22 09:24:56;;;;;;;37.85;17.50;;;;;;;-2.76;73.04;98897.34;4957672;28;20062;-83
2022/01/22 09:27:25;;;;;;;36.25;16.67;;;;;;;-2.82;72.72;98895.41;4968071;28;20081;-80
2022/01/22 09:29:52;;;;;;;39.08;18.13;;;;;;;-2.99;73.61;98884.50;4966057;28;20057;-79
2022/01/22 09:32:19;;;;;;;41.28;18.13;;;;;;;-2.88;73.52;98919.03;4995156;28;20062;-82
2022/01/22 09:34:59;;;;;;;38.53;17.27;;;;;;;-2.82;73.54;98915.84;4976639;28;20240;-79
2022/01/22 09:37:41;;;;;;;37.17;17.05;;;;;;;-2.77;73.35;98929.72;4989027;28;20054;-80
2022/01/22 09:40:35;;;;;;;39.88;17.73;;;;;;;-2.76;73.29;98916.09;4955499;28;20129;-80
2022/01/22 09:43:18;;;;;;;39.92;18.20;;;;;;;-2.73;73.05;98913.69;4977800;28;20078;-82
2022/01/22 09:45:57;;;;;;;39.10;18.30;;;;;;;-2.65;73.17;98910.56;4970505;28;20436;-80
2022/01/22 09:48:46;;;;;;;36.15;17.25;;;;;;;-2.65;73.24;98926.75;4974967;28;20145;-80
2022/01/22 09:51:39;;;;;;;41.15;18.33;;;;;;;-2.69;73.36;98909.56;4984521;28;20417;-83
2022/01/22 09:54:25;;;;;;;40.65;18.23;;;;;;;-2.63;72.80;98898.72;4974038;28;20054;-81
2022/01/22 09:57:14;;;;;;;38.85;16.20;;;;;;;-2.54;72.52;98922.09;4950712;28;20046;-82
2022/01/22 09:59:57;;;;;;;37.83;16.73;;;;;;;-2.65;73.07;98916.53;4980798;28;20523;-81
2022/01/22 10:02:49;;;;;;;39.42;17.70;;;;;;;-2.73;73.27;98921.34;4985848;28;20519;-81
2022/01/22 10:05:41;;;;;;;43.63;18.08;;;;;;;-2.76;73.16;98916.09;5006907;28;20050;-81
2022/01/22 10:08:31;;;;;;;48.78;19.60;;;;;;;-2.51;72.99;98919.66;5006484;28;20499;-84
2022/01/22 10:11:20;;;;;;;41.20;16.63;;;;;;;-2.56;73.27;98923.72;5004201;28;20496;-84
2022/01/22 10:14:07;;;;;;;39.42;17.27;;;;;;;-2.57;72.63;98933.06;5003889;28;20061;-80
2022/01/22 10:16:38;;;;;;;35.65;15.90;;;;;;;-2.66;72.91;98922.47;5003367;28;20136;-80
2022/01/22 10:19:27;;;;;;;36.22;16.90;;;;;;;-2.64;72.86;98907.22;5002791;28;20055;-80
2022/01/22 10:21:57;;;;;;;33.60;16.30;;;;;;;-2.44;72.81;98919.09;5004904;28;20054;-81
2022/01/22 10:24:43;;;;;;;34.78;16.10;;;;;;;-2.35;72.33;98939.91;5000653;28;20053;-79
2022/01/22 10:29:57;;;;;;;31.67;15.13;;;;;;;-2.15;71.72;98938.16;5005735;28;20134;-80
2022/01/22 10:33:07;;;;;;;31.95;13.95;;;;;;;-2.01;71.60;98948.06;4995042;28;20056;-81
2022/01/22 10:35:38;;;;;;;27.58;13.05;;;;;;;-1.88;71.10;98963.06;5003406;28;20523;-81
2022/01/22 10:38:48;;;;;;;30.40;13.23;;;;;;;-1.82;71.25;98953.06;5001706;28;20062;-80
2022/01/22 10:41:21;;;;;;;29.20;13.00;;;;;;;-1.76;70.76;98952.44;5007732;28;20050;-80
2022/01/22 10:43:53;;;;;;;33.13;13.57;;;;;;;-1.93;70.92;98954.34;5007228;28;20046;-81
2022/01/22 10:49:22;;;;;;;25.60;12.32;;;;;;;-1.79;71.42;98960.84;5011153;28;20084;-81
2022/01/22 10:52:04;;;;;;;26.23;12.25;;;;;;;-1.66;71.26;98955.41;4989700;28;20081;-79
2022/01/22 10:54:34;;;;;;;25.83;12.23;;;;;;;-1.63;70.97;98963.97;5007550;28;20065;-81
2022/01/22 10:57:23;;;;;;;27.05;11.98;;;;;;;-1.80;71.26;98956.56;5004190;28;20046;-80
2022/01/22 10:59:55;;;;;;;28.95;12.57;;;;;;;-1.83;71.91;98964.09;5005657;28;20480;-80
2022/01/22 11:02:38;;;;;;;24.65;11.57;;;;;;;-1.70;71.84;98983.38;4996506;28;20069;-80
2022/01/22 11:05:07;;;;;;;26.40;11.32;;;;;;;-1.61;71.70;98981.16;4996530;28;20054;-80
2022/01/22 11:07:34;;;;;;;24.27;11.52;;;;;;;-1.46;71.56;98996.25;5003834;28;20415;-81
2022/01/22 11:10:06;;;;;;;23.80;11.95;;;;;;;-1.53;71.50;98989.13;4994961;28;20070;-80
2022/01/22 11:12:33;;;;;;;24.15;11.00;;;;;;;-1.46;71.68;98998.81;5001588;28;20049;-80
2022/01/22 11:15:01;;;;;;;23.77;11.57;;;;;;;-1.58;71.63;98971.03;5004299;28;20154;-80
2022/01/22 11:17:32;;;;;;;23.88;11.80;;;;;;;-1.24;71.42;99003.88;5003964;28;20050;-79
2022/01/22 11:20:01;;;;;;;22.55;11.50;;;;;;;-1.06;70.97;99010.50;5009673;28;20046;-81
2022/01/22 11:22:33;;;;;;;22.73;10.70;;;;;;;-0.83;70.68;99004.50;4991380;28;20054;-81
2022/01/22 11:25:01;;;;;;;20.65;11.15;;;;;;;-0.83;69.96;99003.63;5007120;28;20054;-80
2022/01/22 11:27:32;;;;;;;20.77;11.57;;;;;;;-0.99;70.50;99016.72;5006395;28;20397;-80
2022/01/22 11:30:07;;;;;;;22.00;10.57;;;;;;;-1.08;70.45;99014.69;5008652;28;20046;-80
2022/01/22 11:32:49;;;;;;;22.63;12.10;;;;;;;-1.23;71.31;99004.75;5004977;28;20046;-79
2022/01/22 11:35:39;;;;;;;22.50;10.48;;;;;;;-1.04;71.13;99026.81;4997505;28;20049;-80
2022/01/22 11:38:10;;;;;;;23.27;11.35;;;;;;;-0.91;70.28;99011.03;4997857;28;20073;-81
2022/01/22 11:40:38;;;;;;;20.48;11.10;;;;;;;-0.82;70.10;99031.00;4996793;28;20046;-82
2022/01/22 11:43:12;;;;;;;23.45;11.57;;;;;;;-0.78;70.54;99035.41;5015393;28;20054;-82
2022/01/22 11:45:49;;;;;;;22.33;11.15;;;;;;;-1.03;70.08;99002.94;4999041;28;20140;-79
2022/01/22 11:48:16;;;;;;;22.17;11.13;;;;;;;-0.86;70.35;99041.97;5015131;28;20084;-80
2022/01/22 11:51:13;;;;;;;23.17;12.05;;;;;;;-1.23;70.34;99025.25;5015400;28;20062;-81
2022/01/22 11:53:41;;;;;;;24.42;11.77;;;;;;;-1.16;70.76;99045.19;5015008;28;20524;-80
2022/01/22 11:56:12;;;;;;;25.60;12.15;;;;;;;-1.14;70.76;99056.38;5015205;28;20049;-80
2022/01/22 11:59:01;;;;;;;21.55;11.95;;;;;;;-1.33;70.65;99057.38;5016330;28;20397;-80
2022/01/22 12:01:37;;;;;;;21.58;10.82;;;;;;;-1.40;70.84;99069.88;5013560;28;20116;-82
2022/01/22 12:04:06;;;;;;;23.08;11.45;;;;;;;-1.48;71.58;99077.28;5014537;28;20197;-81
2022/01/22 12:07:10;;;;;;;24.98;12.20;;;;;;;-1.49;71.92;99070.41;4998715;28;20431;-80
2022/01/22 12:15:30;;;;;;;21.33;10.80;;;;;;;-1.24;70.92;99087.59;5014893;28;20133;-81
2022/01/22 12:18:04;;;;;;;21.38;10.25;;;;;;;-1.36;71.43;99095.66;5013697;28;20050;-80
2022/01/22 12:23:13;;;;;;;25.25;10.43;;;;;;;-1.61;71.77;99100.66;5015579;28;20084;-82
2022/01/22 12:25:39;;;;;;;18.90;9.43;;;;;;;-1.71;72.03;99107.09;5015044;28;20459;-80
2022/01/22 12:28:09;;;;;;;20.02;9.63;;;;;;;-1.81;72.69;99090.50;5015505;28;20058;-80
2022/01/22 12:30:49;;;;;;;21.83;10.18;;;;;;;-1.73;72.79;99116.41;5015186;28;20077;-81
2022/01/22 12:33:28;;;;;;;17.38;9.98;;;;;;;-1.73;72.34;99129.22;5015407;28;20138;-79
2022/01/22 12:36:03;;;;;;;18.35;8.90;;;;;;;-1.96;72.20;99106.09;5015077;28;20057;-81
2022/01/22 12:38:46;;;;;;;20.50;9.93;;;;;;;-1.99;72.60;99128.16;5015203;28;20060;-82
2022/01/22 12:44:10;;;;;;;21.00;9.27;;;;;;;-2.05;72.71;99139.00;5016013;28;20126;-81
2022/01/22 12:46:56;;;;;;;18.70;10.07;;;;;;;-2.20;72.54;99128.13;5000226;28;20120;-80
2022/01/22 12:49:24;;;;;;;20.48;10.98;;;;;;;-1.95;73.26;99155.63;5001764;28;20075;-81
2022/01/22 12:52:04;;;;;;;24.05;10.82;;;;;;;-1.90;73.11;99144.75;5002556;28;20061;-81
2022/01/22 12:54:37;;;;;;;21.35;11.75;;;;;;;-1.93;72.88;99154.88;4996368;28;20045;-81
2022/01/22 12:57:19;;;;;;;25.58;11.38;;;;;;;-1.98;72.91;99142.69;5017979;28;20148;-81
2022/01/22 13:00:00;;;;;;;24.40;12.68;;;;;;;-1.88;72.89;99163.63;5016909;28;20115;-82
2022/01/22 13:02:41;;;;;;;26.77;12.85;;;;;;;-2.06;73.11;99138.13;5001386;28;20062;-83
2022/01/22 13:05:11;;;;;;;24.58;12.77;;;;;;;-1.99;72.97;99154.63;4984428;28;20050;-80
2022/01/22 13:08:01;;;;;;;25.42;12.65;;;;;;;-1.92;72.77;99187.34;5016006;28;20062;-80
2022/01/22 13:10:53;;;;;;;26.98;13.27;;;;;;;-2.01;73.07;99184.41;5016440;28;20049;-81
2022/01/22 13:13:31;;;;;;;28.98;13.65;;;;;;;-2.08;73.53;99184.97;4991373;28;20534;-78
2022/01/22 13:16:11;;;;;;;29.58;14.65;;;;;;;-2.33;73.44;99155.75;5018546;28;20050;-79
2022/01/22 13:18:46;;;;;;;30.90;15.10;;;;;;;-2.36;73.60;99165.00;5036276;28;20046;-79
2022/01/22 13:21:16;;;;;;;30.08;14.70;;;;;;;-2.25;73.54;99189.34;5026093;28;20054;-80
2022/01/22 13:23:46;;;;;;;29.90;15.32;;;;;;;-2.33;73.68;99185.56;5021749;28;20054;-79
2022/01/22 13:26:14;;;;;;;33.75;14.82;;;;;;;-2.52;74.07;99177.09;5014856;28;20057;-80
2022/01/22 13:28:43;;;;;;;31.08;15.45;;;;;;;-2.43;73.79;99181.75;5001777;28;20073;-80
2022/01/22 13:31:16;;;;;;;29.73;14.43;;;;;;;-2.31;73.35;99204.44;4986162;28;20104;-83
2022/01/22 13:34:22;;;;;;;30.95;14.25;;;;;;;-2.49;73.80;99187.47;5002810;28;20054;-82
2022/01/22 13:36:50;;;;;;;25.90;12.77;;;;;;;-2.44;73.85;99200.44;5003424;28;20077;-82